Time;durP1;ratioP1;P1;durP2;ratioP2;P2;SDS_P1;SDS_P2;PMS_P1;PMS_P2;Temp;Humidity;BMP_temperature;BMP_pressure;BME280_temperature;BME280_humidity;BME280_pressure;Samples;Min_cycle;Max_cycle;Signal;HPM_P1;HPM_P2
2023/08/25 00:01:54;;;;;;;;;;;;;;;29.02;42.94;98666.34;4994212;28;20420;-76
2023/08/25 00:04:19;;;;;;;;;;;;;;;29.00;42.99;98673.81;4995078;28;20305;-75
2023/08/25 00:06:44;;;;;;;;;;;;;;;28.98;43.29;98676.72;4977616;28;20408;-75
2023/08/25 00:09:09;;;;;;;;;;;;;;;28.94;43.27;98678.28;4993813;28;20317;-75
2023/08/25 00:11:35;;;;;;;;;;;;;;;28.94;43.31;98675.59;4995809;28;19914;-75
2023/08/25 00:14:00;;;;;;;;;;;;;;;28.92;43.20;98680.38;4995471;28;19918;-75
2023/08/25 00:16:26;;;;;;;;;;;;;;;28.93;43.30;98686.59;4995416;28;19924;-75
2023/08/25 00:18:51;;;;;;;;;;;;;;;28.90;43.41;98687.06;4993762;28;19914;-76
2023/08/25 00:21:17;;;;;;;;;;;;;;;28.87;43.41;98686.47;4978336;28;19921;-75
2023/08/25 00:23:42;;;;;;;;;;;;;;;28.86;43.63;98684.00;4993927;28;19920;-76
2023/08/25 00:26:08;;;;;;;;;;;;;;;28.83;43.57;98685.31;4993084;28;19979;-76
2023/08/25 00:28:33;;;;;;;;;;;;;;;28.81;43.53;98690.13;4977698;28;20340;-75
2023/08/25 00:30:58;;;;;;;;;;;;;;;28.79;43.58;98689.53;4993168;28;19949;-75
2023/08/25 00:33:24;;;;;;;;;;;;;;;28.78;43.72;98689.75;4977270;28;20429;-75
2023/08/25 00:35:49;;;;;;;;;;;;;;;28.77;43.62;98688.13;4977152;28;19977;-75
2023/08/25 00:38:14;;;;;;;;;;;;;;;28.73;43.62;98689.66;4977206;28;20352;-75
2023/08/25 00:40:39;;;;;;;;;;;;;;;28.71;43.73;98691.78;4994371;28;19920;-76
2023/08/25 00:43:05;;;;;;;;;;;;;;;28.68;43.86;98687.69;4993865;28;19972;-75
2023/08/25 00:45:30;;;;;;;;;;;;;;;28.67;43.79;98689.56;4992392;28;20282;-75
2023/08/25 00:47:56;;;;;;;;;;;;;;;28.66;43.93;98689.78;4993628;28;19921;-75
2023/08/25 00:50:21;;;;;;;;;;;;;;;28.65;43.99;98699.69;4992944;28;19918;-75
2023/08/25 00:52:46;;;;;;;;;;;;;;;28.65;43.98;98696.19;4993444;28;19914;-76
2023/08/25 00:55:11;;;;;;;;;;;;;;;28.64;43.82;98692.72;4992672;28;19921;-75
2023/08/25 00:57:37;;;;;;;;;;;;;;;28.63;43.84;98704.50;4993072;28;19917;-75
2023/08/25 01:00:04;;;;;;;;;;;;;;;28.60;43.95;98694.22;4992193;28;19921;-76
2023/08/25 01:02:29;;;;;;;;;;;;;;;28.60;43.93;98698.78;4976059;28;19936;-76
2023/08/25 01:04:56;;;;;;;;;;;;;;;28.59;43.95;98695.28;4976729;28;20303;-75
2023/08/25 01:07:21;;;;;;;;;;;;;;;28.57;43.73;98689.28;4993454;28;19913;-79
2023/08/25 01:09:47;;;;;;;;;;;;;;;28.57;44.05;98696.53;4994161;28;19981;-79
2023/08/25 01:12:51;;;;;;;;;;;;;;;28.55;43.98;98693.28;4993367;28;19985;-79
2023/08/25 01:15:22;;;;;;;;;;;;;;;28.54;44.07;98699.69;4971759;28;20285;-78
2023/08/25 01:17:48;;;;;;;;;;;;;;;28.53;43.92;98701.56;4956740;28;20005;-79
2023/08/25 01:20:14;;;;;;;;;;;;;;;28.52;43.99;98713.34;4972497;28;20376;-79
2023/08/25 01:22:48;;;;;;;;;;;;;;;28.50;44.01;98712.78;4955965;28;19914;-79
2023/08/25 01:25:26;;;;;;;;;;;;;;;28.49;43.95;98714.63;4971436;28;19988;-79
2023/08/25 01:27:51;;;;;;;;;;;;;;;28.48;44.08;98710.34;4940639;28;19921;-79
2023/08/25 01:30:17;;;;;;;;;;;;;;;28.46;43.99;98703.56;4971241;28;19914;-79
2023/08/25 01:32:42;;;;;;;;;;;;;;;28.44;44.12;98700.28;4940214;28;20016;-79
2023/08/25 01:35:08;;;;;;;;;;;;;;;28.42;44.06;98695.16;4938961;28;19913;-79
2023/08/25 01:37:34;;;;;;;;;;;;;;;28.40;44.08;98702.63;4953198;28;19937;-79
2023/08/25 01:40:06;;;;;;;;;;;;;;;28.40;43.99;98694.59;4971240;28;19918;-79
2023/08/25 01:42:33;;;;;;;;;;;;;;;28.38;44.03;98693.97;4972114;28;19960;-79
2023/08/25 01:44:58;;;;;;;;;;;;;;;28.38;43.93;98701.22;4957154;28;20307;-79
2023/08/25 01:47:23;;;;;;;;;;;;;;;28.37;43.96;98700.41;4992259;28;19972;-78
2023/08/25 01:49:49;;;;;;;;;;;;;;;28.37;43.87;98702.25;4991406;28;19972;-78
2023/08/25 01:52:14;;;;;;;;;;;;;;;28.36;43.94;98706.03;4992334;28;20020;-79
2023/08/25 01:54:41;;;;;;;;;;;;;;;28.35;43.94;98707.88;4992679;28;19914;-79
2023/08/25 01:57:06;;;;;;;;;;;;;;;28.33;43.90;98713.47;4990821;28;20391;-79
2023/08/25 01:59:32;;;;;;;;;;;;;;;28.33;43.83;98716.16;4992114;28;20012;-78
2023/08/25 02:01:57;;;;;;;;;;;;;;;28.31;43.91;98710.22;5009173;28;19914;-78
2023/08/25 02:04:23;;;;;;;;;;;;;;;28.29;43.89;98711.47;4992251;28;19914;-79
2023/08/25 02:06:48;;;;;;;;;;;;;;;28.28;43.86;98710.69;4991447;28;19925;-79
2023/08/25 02:09:14;;;;;;;;;;;;;;;28.25;43.87;98711.13;4992018;28;19971;-78
2023/08/25 02:11:39;;;;;;;;;;;;;;;28.24;43.96;98709.50;4993282;28;19914;-78
2023/08/25 02:14:04;;;;;;;;;;;;;;;28.23;43.99;98707.03;5008781;28;19917;-79
2023/08/25 02:16:30;;;;;;;;;;;;;;;28.21;44.25;98704.63;4993212;28;19917;-79
2023/08/25 02:18:55;;;;;;;;;;;;;;;28.18;44.25;98698.88;4992001;28;20012;-79
2023/08/25 02:21:20;;;;;;;;;;;;;;;28.16;44.19;98707.16;4992042;28;19936;-79
2023/08/25 02:23:46;;;;;;;;;;;;;;;28.12;44.30;98706.81;4993243;28;20369;-78
2023/08/25 02:26:11;;;;;;;;;;;;;;;28.13;44.29;98703.09;4993372;28;19913;-79
2023/08/25 02:28:36;;;;;;;;;;;;;;;28.14;44.34;98706.59;5008912;28;19957;-79
2023/08/25 02:31:02;;;;;;;;;;;;;;;28.13;44.30;98711.16;5008222;28;19936;-79
2023/08/25 02:33:27;;;;;;;;;;;;;;;28.13;44.34;98705.78;4991663;28;19977;-79
2023/08/25 02:35:52;;;;;;;;;;;;;;;28.12;44.49;98711.38;4992856;28;19924;-79
2023/08/25 02:38:18;;;;;;;;;;;;;;;28.10;44.46;98708.94;4993323;28;19913;-79
2023/08/25 02:40:43;;;;;;;;;;;;;;;28.10;44.31;98710.78;4991489;28;20452;-79
2023/08/25 02:43:08;;;;;;;;;;;;;;;28.09;44.26;98703.78;4975848;28;20377;-79
2023/08/25 02:45:34;;;;;;;;;;;;;;;28.08;44.59;98702.94;5008643;28;19925;-78
2023/08/25 02:47:59;;;;;;;;;;;;;;;28.07;44.48;98714.75;5008269;28;19921;-79
2023/08/25 02:50:25;;;;;;;;;;;;;;;28.07;44.40;98708.56;4990925;28;19926;-79
2023/08/25 02:52:50;;;;;;;;;;;;;;;28.05;44.43;98706.09;4992526;28;19992;-79
2023/08/25 02:55:16;;;;;;;;;;;;;;;28.05;44.44;98708.78;4991748;28;19918;-79
2023/08/25 02:57:42;;;;;;;;;;;;;;;28.04;44.27;98712.53;4991411;28;19913;-79
2023/08/25 03:00:08;;;;;;;;;;;;;;;28.04;44.41;98709.00;5008514;28;20304;-79
2023/08/25 03:02:33;;;;;;;;;;;;;;;28.05;44.40;98714.16;4991243;28;20008;-78
2023/08/25 03:04:58;;;;;;;;;;;;;;;28.07;44.72;98713.91;4991560;28;20008;-79
2023/08/25 03:07:23;;;;;;;;;;;;;;;28.09;45.28;98726.06;4991626;28;19920;-81
2023/08/25 03:09:49;;;;;;;;;;;;;;;28.11;45.01;98718.59;4993950;28;19929;-75
2023/08/25 03:12:14;;;;;;;;;;;;;;;28.13;45.53;98716.50;4996813;28;19939;-74
2023/08/25 03:14:39;;;;;;;;;;;;;;;28.15;45.90;98706.34;4994970;28;19918;-77
2023/08/25 03:17:04;;;;;;;;;;;;;;;28.13;45.84;98707.63;4995177;28;19968;-75
2023/08/25 03:19:30;;;;;;;;;;;;;;;28.06;45.11;98698.88;4996255;28;19924;-79
2023/08/25 03:21:55;;;;;;;;;;;;;;;28.06;45.27;98709.63;4996449;28;19918;-78
2023/08/25 03:24:20;;;;;;;;;;;;;;;28.02;45.47;98701.19;4996380;28;20432;-77
2023/08/25 03:26:46;;;;;;;;;;;;;;;27.98;45.27;98698.16;4996421;28;19914;-83
2023/08/25 03:29:11;;;;;;;;;;;;;;;27.98;45.32;98702.72;5011601;28;19914;-82
2023/08/25 03:31:38;;;;;;;;;;;;;;;27.96;45.19;98702.94;5009671;28;20008;-80
2023/08/25 03:34:03;;;;;;;;;;;;;;;27.96;45.17;98707.50;4994474;28;19917;-80
2023/08/25 03:36:30;;;;;;;;;;;;;;;27.95;45.20;98701.31;4994692;28;19979;-79
2023/08/25 03:38:55;;;;;;;;;;;;;;;27.95;45.14;98709.34;4995334;28;20369;-80
2023/08/25 03:41:20;;;;;;;;;;;;;;;27.96;45.06;98702.94;4994829;28;19921;-80
2023/08/25 03:43:46;;;;;;;;;;;;;;;28.01;45.09;98704.13;5011398;28;19920;-80
2023/08/25 03:46:11;;;;;;;;;;;;;;;28.08;44.54;98702.94;5011374;28;19916;-79
2023/08/25 03:48:37;;;;;;;;;;;;;;;28.21;44.26;98709.16;4994653;28;20007;-80
2023/08/25 03:51:02;;;;;;;;;;;;;;;28.37;43.66;98707.63;4994811;28;20294;-79
2023/08/25 03:53:27;;;;;;;;;;;;;;;28.54;43.21;98713.94;4994504;28;19918;-80
2023/08/25 03:55:53;;;;;;;;;;;;;;;28.77;42.83;98707.75;4994646;28;19921;-79
2023/08/25 03:58:18;;;;;;;;;;;;;;;29.02;42.15;98720.91;4994464;28;19913;-79
2023/08/25 04:00:49;;;;;;;;;;;;;;;29.26;41.64;98714.66;5010891;28;19918;-77
2023/08/25 04:03:15;;;;;;;;;;;;;;;29.41;41.68;98713.09;4995921;28;20389;-71
2023/08/25 04:05:40;;;;;;;;;;;;;;;29.59;40.96;98709.34;4994259;28;19921;-71
2023/08/25 04:08:05;;;;;;;;;;;;;;;29.90;40.59;98718.00;4994110;28;19914;-71
2023/08/25 04:10:31;;;;;;;;;;;;;;;30.21;40.43;98723.84;4995584;28;19956;-73
2023/08/25 04:12:56;;;;;;;;;;;;;;;30.54;39.25;98724.91;4993795;28;19968;-72
2023/08/25 04:15:21;;;;;;;;;;;;;;;30.84;39.28;98721.81;4995340;28;19914;-73
2023/08/25 04:17:46;;;;;;;;;;;;;;;31.22;38.34;98727.41;4995098;28;19914;-72
2023/08/25 04:20:14;;;;;;;;;;;;;;;31.57;37.65;98723.50;4993216;28;19917;-74
2023/08/25 04:22:40;;;;;;;;;;;;;;;31.99;37.71;98722.78;4994401;28;19913;-78
2023/08/25 04:25:06;;;;;;;;;;;;;;;32.44;36.48;98736.91;4994491;28;20417;-74
2023/08/25 04:27:31;;;;;;;;;;;;;;;32.80;35.81;98739.84;4995316;28;19949;-75
2023/08/25 04:29:56;;;;;;;;;;;;;;;33.22;34.83;98746.25;4994008;28;20022;-86
2023/08/25 04:32:22;;;;;;;;;;;;;;;33.63;34.21;98747.16;5010624;28;20004;-79
2023/08/25 04:34:47;;;;;;;;;;;;;;;34.02;33.94;98743.97;4994633;28;19924;-83
2023/08/25 04:37:13;;;;;;;;;;;;;;;34.54;32.88;98749.38;4994189;28;19918;-80
2023/08/25 04:39:40;;;;;;;;;;;;;;;34.95;32.00;98743.84;4995181;28;19965;-81
2023/08/25 04:42:05;;;;;;;;;;;;;;;35.37;31.42;98748.00;4995254;28;19966;-78
2023/08/25 04:44:31;;;;;;;;;;;;;;;35.79;31.10;98752.09;4993899;28;20344;-80
2023/08/25 04:46:56;;;;;;;;;;;;;;;36.26;30.06;98751.75;4993893;28;19913;-83
2023/08/25 04:49:21;;;;;;;;;;;;;;;36.63;29.53;98740.22;4995304;28;19921;-84
2023/08/25 04:51:46;;;;;;;;;;;;;;;37.01;28.86;98737.63;5010260;28;19980;-87
2023/08/25 04:54:12;;;;;;;;;;;;;;;37.46;28.53;98749.03;4994576;28;19924;-86
2023/08/25 04:56:37;;;;;;;;;;;;;;;37.81;27.96;98741.44;4977120;28;19920;-85
2023/08/25 04:59:03;;;;;;;;;;;;;;;38.21;27.54;98751.97;4993742;28;19921;-85
2023/08/25 05:01:28;;;;;;;;;;;;;;;38.62;26.54;98753.16;4994954;28;20296;-86
2023/08/25 05:03:55;;;;;;;;;;;;;;;38.97;26.26;98754.38;4995267;28;19922;-85
2023/08/25 05:06:21;;;;;;;;;;;;;;;39.36;25.74;98754.94;4977504;28;19921;-84
2023/08/25 05:08:46;;;;;;;;;;;;;;;39.64;25.43;98761.16;4994100;28;19913;-84
2023/08/25 05:11:12;;;;;;;;;;;;;;;39.96;25.24;98751.91;4994936;28;19920;-85
2023/08/25 05:13:37;;;;;;;;;;;;;;;40.31;24.49;98751.31;4995105;28;19924;-86
2023/08/25 05:16:02;;;;;;;;;;;;;;;40.46;24.05;98748.19;4993913;28;19913;-86
2023/08/25 05:18:28;;;;;;;;;;;;;;;40.73;24.32;98754.59;4994773;28;19914;-85
2023/08/25 05:21:00;;;;;;;;;;;;;;;40.54;24.26;98756.78;4995221;28;19913;-84
2023/08/25 05:23:25;;;;;;;;;;;;;;;39.57;25.74;98758.06;4993850;28;19917;-85
2023/08/25 05:25:50;;;;;;;;;;;;;;;39.91;25.08;98753.94;4977197;28;20036;-85
2023/08/25 05:28:16;;;;;;;;;;;;;;;39.13;26.47;98760.34;4973571;28;19918;-84
2023/08/25 05:30:45;;;;;;;;;;;;;;;39.72;25.63;98757.66;4990166;28;19914;-84
2023/08/25 05:33:11;;;;;;;;;;;;;;;40.41;24.58;98759.28;4990338;28;19914;-84
2023/08/25 05:35:37;;;;;;;;;;;;;;;40.93;23.74;98755.13;4990148;28;19977;-85
2023/08/25 05:38:02;;;;;;;;;;;;;;;41.42;23.15;98758.66;4990381;28;19918;-86
2023/08/25 05:40:28;;;;;;;;;;;;;;;41.87;22.57;98763.78;4990291;28;19921;-84
2023/08/25 05:42:53;;;;;;;;;;;;;;;42.22;22.39;98771.97;4989877;28;19914;-84
2023/08/25 05:45:18;;;;;;;;;;;;;;;42.57;21.83;98771.88;4989865;28;20340;-83
2023/08/25 05:47:44;;;;;;;;;;;;;;;42.87;21.66;98768.34;4989517;28;19961;-85
2023/08/25 05:50:09;;;;;;;;;;;;;;;43.12;21.36;98774.84;4975102;28;19914;-84
2023/08/25 05:52:35;;;;;;;;;;;;;;;43.39;21.20;98779.06;4989636;28;19921;-84
2023/08/25 05:55:00;;;;;;;;;;;;;;;43.64;20.63;98782.72;4989361;28;20301;-84
2023/08/25 05:57:25;;;;;;;;;;;;;;;43.81;20.32;98783.75;4990266;28;20016;-85
2023/08/25 05:59:50;;;;;;;;;;;;;;;43.99;20.22;98784.38;4989750;28;19953;-86
2023/08/25 06:02:16;;;;;;;;;;;;;;;44.18;20.05;98781.91;4976746;28;20338;-84
2023/08/25 06:04:41;;;;;;;;;;;;;;;44.23;19.88;98778.16;4994124;28;19920;-85
2023/08/25 06:07:06;;;;;;;;;;;;;;;44.43;19.63;98779.25;5009637;28;19971;-84
2023/08/25 06:09:32;;;;;;;;;;;;;;;44.52;19.37;98776.38;5009469;28;19913;-84
2023/08/25 06:11:59;;;;;;;;;;;;;;;44.75;19.27;98777.56;5008901;28;20290;-84
2023/08/25 06:14:24;;;;;;;;;;;;;;;44.81;19.25;98775.38;5009325;28;19982;-83
2023/08/25 06:16:50;;;;;;;;;;;;;;;44.89;19.47;98771.69;5008585;28;20400;-84
2023/08/25 06:19:15;;;;;;;;;;;;;;;45.02;19.21;98778.03;4993412;28;20329;-83
2023/08/25 06:21:40;;;;;;;;;;;;;;;45.09;19.52;98778.25;4993501;28;19980;-83
2023/08/25 06:24:06;;;;;;;;;;;;;;;45.22;19.54;98769.97;5008808;28;19914;-83
2023/08/25 06:26:31;;;;;;;;;;;;;;;45.25;18.92;98772.81;5008638;28;19963;-85
2023/08/25 06:28:57;;;;;;;;;;;;;;;45.28;19.13;98769.38;5008697;28;19914;-83
2023/08/25 06:31:22;;;;;;;;;;;;;;;45.36;18.84;98770.41;5008504;28;20274;-83
2023/08/25 06:33:47;;;;;;;;;;;;;;;45.43;18.83;98764.31;5008511;28;20483;-82
2023/08/25 06:36:12;;;;;;;;;;;;;;;45.44;18.89;98774.19;5008349;28;19918;-84
2023/08/25 06:38:38;;;;;;;;;;;;;;;45.53;19.30;98776.78;4975759;28;19913;-82
2023/08/25 06:41:03;;;;;;;;;;;;;;;45.56;18.78;98765.06;4991960;28;20352;-82
2023/08/25 06:43:28;;;;;;;;;;;;;;;45.61;19.21;98767.56;4993614;28;20408;-84
2023/08/25 06:45:54;;;;;;;;;;;;;;;45.67;19.32;98775.25;4995914;28;19921;-82
2023/08/25 06:48:19;;;;;;;;;;;;;;;45.65;18.80;98772.03;5012141;28;20269;-82
2023/08/25 06:50:45;;;;;;;;;;;;;;;45.70;19.21;98768.22;4995874;28;19925;-83
2023/08/25 06:53:10;;;;;;;;;;;;;;;45.75;19.08;98776.22;4995871;28;19936;-81
2023/08/25 06:55:35;;;;;;;;;;;;;;;45.75;18.82;98779.00;4995809;28;19914;-83
2023/08/25 06:58:01;;;;;;;;;;;;;;;45.76;19.13;98779.81;4995811;28;20419;-83
2023/08/25 07:00:26;;;;;;;;;;;;;;;45.76;18.98;98786.13;4995831;28;19920;-82
2023/08/25 07:02:52;;;;;;;;;;;;;;;45.76;18.46;98779.81;4995566;28;20369;-82
2023/08/25 07:05:18;;;;;;;;;;;;;;;45.74;18.51;98780.16;4996057;28;19913;-84
2023/08/25 07:07:43;;;;;;;;;;;;;;;45.74;18.90;98771.88;4996811;28;19957;-83
2023/08/25 07:10:09;;;;;;;;;;;;;;;45.78;19.05;98766.50;4995517;28;20325;-83
2023/08/25 07:12:35;;;;;;;;;;;;;;;45.79;18.98;98765.34;4995229;28;19961;-83
2023/08/25 07:15:00;;;;;;;;;;;;;;;45.79;18.66;98763.38;4995054;28;20377;-83
2023/08/25 07:17:25;;;;;;;;;;;;;;;45.82;18.98;98759.13;4995399;28;19914;-81
2023/08/25 07:19:51;;;;;;;;;;;;;;;45.83;18.62;98764.31;4996851;28;19936;-82
2023/08/25 07:22:16;;;;;;;;;;;;;;;45.90;18.92;98763.69;4995836;28;20307;-83
2023/08/25 07:24:41;;;;;;;;;;;;;;;45.84;18.45;98760.38;4995895;28;19913;-83
2023/08/25 07:27:07;;;;;;;;;;;;;;;45.91;18.26;98759.78;4996594;28;19921;-83
2023/08/25 07:29:35;;;;;;;;;;;;;;;45.90;18.93;98769.19;4995306;28;19918;-81
2023/08/25 07:32:01;;;;;;;;;;;;;;;45.99;18.86;98758.00;4995314;28;19913;-82
2023/08/25 07:34:26;;;;;;;;;;;;;;;45.97;18.44;98769.38;4996633;28;19918;-83
2023/08/25 07:36:52;;;;;;;;;;;;;;;45.99;18.55;98761.56;4995635;28;19961;-82
2023/08/25 07:39:18;;;;;;;;;;;;;;;46.01;18.44;98763.97;4994888;28;19921;-83
2023/08/25 07:41:43;;;;;;;;;;;;;;;46.11;17.93;98757.13;4995084;28;19920;-83
2023/08/25 07:44:09;;;;;;;;;;;;;;;46.14;18.00;98762.72;4994952;28;19920;-81
2023/08/25 07:46:37;;;;;;;;;;;;;;;46.19;18.35;98765.25;4996368;28;19914;-82
2023/08/25 07:49:03;;;;;;;;;;;;;;;46.18;17.73;98758.16;4994826;28;19929;-82
2023/08/25 07:51:28;;;;;;;;;;;;;;;46.20;18.05;98753.06;4994959;28;19914;-82
2023/08/25 07:53:53;;;;;;;;;;;;;;;46.24;17.75;98750.38;4994750;28;19914;-83
2023/08/25 07:56:19;;;;;;;;;;;;;;;46.25;17.56;98749.25;4993640;28;19920;-83
2023/08/25 07:58:44;;;;;;;;;;;;;;;46.31;17.64;98755.31;4994981;28;19918;-83
2023/08/25 08:01:11;;;;;;;;;;;;;;;46.36;17.58;98752.28;4995104;28;20436;-83
2023/08/25 08:03:36;;;;;;;;;;;;;;;46.37;17.23;98748.34;4994685;28;19913;-82
2023/08/25 08:06:02;;;;;;;;;;;;;;;46.40;17.29;98750.38;4994831;28;19914;-83
2023/08/25 08:08:27;;;;;;;;;;;;;;;46.43;17.44;98748.88;4994726;28;19964;-82
2023/08/25 08:10:52;;;;;;;;;;;;;;;46.46;16.97;98746.19;4994802;28;20316;-83
2023/08/25 08:13:18;;;;;;;;;;;;;;;46.47;16.72;98742.28;5010760;28;19918;-84
2023/08/25 08:15:43;;;;;;;;;;;;;;;46.49;16.63;98745.50;4994393;28;19917;-86
2023/08/25 08:18:09;;;;;;;;;;;;;;;46.46;16.58;98737.91;4994604;28;19914;-83
2023/08/25 08:20:34;;;;;;;;;;;;;;;46.45;16.52;98741.03;4994861;28;19918;-83
2023/08/25 08:23:00;;;;;;;;;;;;;;;46.43;17.13;98743.38;4994398;28;19921;-82
2023/08/25 08:25:25;;;;;;;;;;;;;;;46.43;16.87;98741.41;4993895;28;19924;-82
2023/08/25 08:27:51;;;;;;;;;;;;;;;46.47;16.93;98730.47;4994510;28;19914;-82
2023/08/25 08:30:16;;;;;;;;;;;;;;;46.45;16.82;98736.34;4994793;28;19931;-83
2023/08/25 08:32:41;;;;;;;;;;;;;;;46.45;16.76;98733.59;4994241;28;19914;-84
2023/08/25 08:35:08;;;;;;;;;;;;;;;46.40;16.93;98739.34;4994182;28;19918;-83
2023/08/25 08:37:33;;;;;;;;;;;;;;;46.39;17.07;98730.28;4994118;28;20369;-82
2023/08/25 08:39:58;;;;;;;;;;;;;;;46.38;17.13;98733.41;4994204;28;19969;-81
2023/08/25 08:42:24;;;;;;;;;;;;;;;46.37;17.63;98731.78;4995379;28;19918;-83
2023/08/25 08:44:49;;;;;;;;;;;;;;;46.38;17.53;98733.41;4996012;28;19933;-82
2023/08/25 08:47:18;;;;;;;;;;;;;;;46.33;17.58;98725.41;4994337;28;19957;-84
2023/08/25 08:49:43;;;;;;;;;;;;;;;46.33;17.33;98728.16;4994019;28;19972;-83
2023/08/25 08:52:09;;;;;;;;;;;;;;;46.29;18.01;98727.25;4994072;28;19918;-82
2023/08/25 08:54:35;;;;;;;;;;;;;;;46.28;17.97;98722.91;4995328;28;19976;-83
2023/08/25 08:57:00;;;;;;;;;;;;;;;46.23;17.89;98727.53;5010603;28;19921;-82
2023/08/25 08:59:25;;;;;;;;;;;;;;;46.20;17.55;98725.47;5010011;28;19913;-83
2023/08/25 09:01:51;;;;;;;;;;;;;;;46.14;17.43;98718.59;5010585;28;20399;-83
2023/08/25 09:04:18;;;;;;;;;;;;;;;46.05;18.05;98727.06;4993762;28;20313;-83
2023/08/25 09:06:43;;;;;;;;;;;;;;;45.98;17.80;98726.84;5009522;28;19913;-83
2023/08/25 09:09:09;;;;;;;;;;;;;;;45.93;18.02;98724.38;5010049;28;19913;-83
2023/08/25 09:11:34;;;;;;;;;;;;;;;45.85;18.39;98726.13;5010224;28;20009;-87
2023/08/25 09:14:04;;;;;;;;;;;;;;;45.77;18.37;98721.59;5009588;28;20001;-83
2023/08/25 09:16:29;;;;;;;;;;;;;;;45.66;18.08;98721.25;4993697;28;19913;-82
2023/08/25 09:18:55;;;;;;;;;;;;;;;45.63;18.09;98723.94;4993459;28;20404;-83
2023/08/25 09:21:20;;;;;;;;;;;;;;;45.39;18.42;98724.81;4993353;28;20392;-82
2023/08/25 09:23:59;;;;;;;;;;;;;;;45.27;18.31;98715.41;5009991;28;19920;-84
2023/08/25 09:26:24;;;;;;;;;;;;;;;45.16;18.57;98714.31;4993226;28;19922;-84
2023/08/25 09:28:57;;;;;;;;;;;;;;;45.03;18.32;98712.75;4993718;28;19918;-85
2023/08/25 09:31:29;;;;;;;;;;;;;;;44.80;18.88;98705.75;4993108;28;19913;-82
2023/08/25 09:34:01;;;;;;;;;;;;;;;44.73;18.91;98704.75;5009821;28;19918;-84
2023/08/25 09:36:26;;;;;;;;;;;;;;;44.60;19.12;98709.47;4993007;28;19922;-82
2023/08/25 09:38:52;;;;;;;;;;;;;;;44.55;19.10;98699.44;4992874;28;19920;-84
2023/08/25 09:41:27;;;;;;;;;;;;;;;44.40;19.00;98703.69;4993281;28;19913;-84
2023/08/25 09:43:59;;;;;;;;;;;;;;;44.26;19.16;98703.22;5009366;28;19965;-83
2023/08/25 09:46:28;;;;;;;;;;;;;;;44.12;19.40;98691.72;4992834;28;19918;-82
2023/08/25 09:48:59;;;;;;;;;;;;;;;43.96;19.36;98697.88;4992894;28;19968;-83
2023/08/25 09:51:25;;;;;;;;;;;;;;;43.87;19.58;98692.50;4992665;28;20016;-82
2023/08/25 09:53:50;;;;;;;;;;;;;;;43.80;19.79;98685.94;4993266;28;19960;-83
2023/08/25 09:56:15;;;;;;;;;;;;;;;43.78;19.80;98686.25;5009125;28;19913;-82
2023/08/25 09:58:41;;;;;;;;;;;;;;;43.65;19.98;98681.84;5009139;28;20369;-83
2023/08/25 10:01:06;;;;;;;;;;;;;;;43.62;20.06;98669.59;4992551;28;20273;-83
2023/08/25 10:03:31;;;;;;;;;;;;;;;43.54;19.92;98659.50;5009093;28;19961;-84
2023/08/25 10:05:57;;;;;;;;;;;;;;;43.43;20.35;98661.88;5009062;28;20305;-82
2023/08/25 10:08:22;;;;;;;;;;;;;;;43.34;20.28;98659.16;5008946;28;20362;-85
2023/08/25 10:10:47;;;;;;;;;;;;;;;43.23;20.07;98655.22;5009174;28;19913;-85
2023/08/25 10:13:14;;;;;;;;;;;;;;;43.11;20.41;98647.75;4992325;28;19917;-83
2023/08/25 10:15:40;;;;;;;;;;;;;;;43.03;20.52;98648.59;4992171;28;19917;-83
2023/08/25 10:18:08;;;;;;;;;;;;;;;42.92;20.72;98650.94;4993225;28;20340;-83
2023/08/25 10:20:34;;;;;;;;;;;;;;;42.79;20.84;98649.25;5007805;28;19917;-83
2023/08/25 10:23:00;;;;;;;;;;;;;;;42.61;21.01;98641.13;5008420;28;19920;-83
2023/08/25 10:25:31;;;;;;;;;;;;;;;42.52;21.27;98643.09;5009368;28;19914;-84
2023/08/25 10:27:57;;;;;;;;;;;;;;;42.44;21.19;98641.22;5009107;28;20000;-82
2023/08/25 10:30:22;;;;;;;;;;;;;;;42.36;21.22;98640.13;4992291;28;19956;-82
2023/08/25 10:33:03;;;;;;;;;;;;;;;42.29;21.69;98646.13;4992278;28;20380;-83
2023/08/25 10:35:42;;;;;;;;;;;;;;;42.15;21.59;98636.50;5008277;28;20400;-81
2023/08/25 10:38:19;;;;;;;;;;;;;;;42.03;21.80;98631.69;5007979;28;20082;-83
2023/08/25 10:40:57;;;;;;;;;;;;;;;41.88;21.77;98628.38;4993100;28;19918;-82
2023/08/25 10:43:26;;;;;;;;;;;;;;;41.73;21.84;98626.16;4992448;28;19964;-83
2023/08/25 10:45:51;;;;;;;;;;;;;;;41.63;22.32;98629.22;4991885;28;19914;-82
2023/08/25 10:48:16;;;;;;;;;;;;;;;41.52;22.51;98617.81;5008128;28;19914;-83
2023/08/25 10:50:42;;;;;;;;;;;;;;;41.43;22.63;98626.03;4992090;28;19918;-82
2023/08/25 10:53:27;;;;;;;;;;;;;;;41.22;22.88;98623.13;4991631;28;20439;-83
2023/08/25 10:55:52;;;;;;;;;;;;;;;41.08;23.04;98608.81;4991632;28;19920;-83
2023/08/25 10:58:18;;;;;;;;;;;;;;;41.00;22.76;98600.28;4992171;28;19914;-81
2023/08/25 11:00:43;;;;;;;;;;;;;;;40.89;23.02;98606.41;5008255;28;19913;-84
2023/08/25 11:03:08;;;;;;;;;;;;;;;40.73;22.92;98609.56;4991882;28;19980;-83
2023/08/25 11:05:37;;;;;;;;;;;;;;;40.49;23.14;98602.63;4992230;28;20114;-83
2023/08/25 11:08:05;;;;;;;;;;;;;;;40.37;23.50;98607.88;4993108;28;19914;-83
2023/08/25 11:10:33;;;;;;;;;;;;;;;40.16;23.10;98599.44;5007710;28;19914;-82
2023/08/25 11:12:59;;;;;;;;;;;;;;;40.02;23.53;98601.50;5007856;28;19918;-82
2023/08/25 11:15:24;;;;;;;;;;;;;;;39.91;23.58;98600.94;5007806;28;19925;-83
2023/08/25 11:17:49;;;;;;;;;;;;;;;39.78;23.94;98600.72;5008072;28;19913;-84
2023/08/25 11:20:15;;;;;;;;;;;;;;;39.73;23.91;98603.59;5008327;28;20008;-83
2023/08/25 11:22:50;;;;;;;;;;;;;;;39.63;24.08;98590.19;5008303;28;19920;-81
2023/08/25 11:25:16;;;;;;;;;;;;;;;39.53;23.92;98595.91;4991464;28;20395;-81
2023/08/25 11:27:41;;;;;;;;;;;;;;;39.40;23.97;98601.13;4992235;28;19914;-83
2023/08/25 11:30:07;;;;;;;;;;;;;;;39.23;23.91;98595.53;4993364;28;19914;-82
2023/08/25 11:32:33;;;;;;;;;;;;;;;39.13;24.24;98584.88;5011561;28;19913;-83
2023/08/25 11:34:58;;;;;;;;;;;;;;;39.05;24.12;98583.66;4995196;28;20297;-83
2023/08/25 11:37:23;;;;;;;;;;;;;;;38.99;24.40;98580.22;4994903;28;19972;-82
2023/08/25 11:39:49;;;;;;;;;;;;;;;38.91;24.49;98578.25;4995509;28;19968;-82
2023/08/25 11:42:18;;;;;;;;;;;;;;;38.86;24.61;98578.38;5011271;28;19918;-83
2023/08/25 11:44:43;;;;;;;;;;;;;;;38.84;24.90;98572.41;4996603;28;19964;-82
2023/08/25 11:47:09;;;;;;;;;;;;;;;38.83;24.84;98579.00;5011386;28;19918;-82
2023/08/25 11:49:35;;;;;;;;;;;;;;;38.78;24.91;98569.00;4995122;28;19918;-83
2023/08/25 11:52:00;;;;;;;;;;;;;;;38.74;24.69;98573.44;5011430;28;20344;-81
2023/08/25 11:54:25;;;;;;;;;;;;;;;38.70;24.87;98564.28;5011412;28;19914;-84
2023/08/25 11:56:51;;;;;;;;;;;;;;;38.70;25.24;98572.47;4994870;28;19914;-83
2023/08/25 11:59:17;;;;;;;;;;;;;;;38.63;24.55;98567.41;4994778;28;19914;-84
2023/08/25 12:01:43;;;;;;;;;;;;;;;38.61;25.02;98566.88;5011021;28;19913;-83
2023/08/25 12:04:23;;;;;;;;;;;;;;;38.55;25.12;98563.44;5011081;28;20289;-83
2023/08/25 12:06:53;;;;;;;;;;;;;;;38.54;25.10;98559.13;4994282;28;19914;-82
2023/08/25 12:09:19;;;;;;;;;;;;;;;38.54;24.77;98561.06;4994881;28;20361;-84
2023/08/25 12:11:45;;;;;;;;;;;;;;;38.51;25.26;98572.56;4994544;28;19921;-84
2023/08/25 12:14:22;;;;;;;;;;;;;;;38.49;25.28;98559.25;4994072;28;20365;-83
2023/08/25 12:16:47;;;;;;;;;;;;;;;38.47;25.05;98550.56;5008187;28;19950;-83
2023/08/25 12:19:12;;;;;;;;;;;;;;;38.46;25.22;98548.13;4974962;28;19977;-77
2023/08/25 12:21:38;;;;;;;;;;;;;;;38.43;25.25;98555.03;4994413;28;20008;-80
2023/08/25 12:24:04;;;;;;;;;;;;;;;38.41;24.90;98550.97;4974227;28;20377;-83
2023/08/25 12:26:29;;;;;;;;;;;;;;;38.37;25.11;98551.59;4992872;28;19918;-84
2023/08/25 12:28:55;;;;;;;;;;;;;;;38.32;24.94;98546.25;4993239;28;20403;-81
2023/08/25 12:31:20;;;;;;;;;;;;;;;38.33;24.87;98549.78;5004044;28;19914;-83
2023/08/25 12:33:45;;;;;;;;;;;;;;;38.32;25.09;98545.44;5002555;28;20001;-83
2023/08/25 12:36:10;;;;;;;;;;;;;;;38.31;24.91;98552.81;5005505;28;19936;-79
2023/08/25 12:38:36;;;;;;;;;;;;;;;38.31;24.96;98546.56;4974758;28;19993;-82
2023/08/25 12:41:01;;;;;;;;;;;;;;;38.28;24.69;98550.69;4991773;28;19939;-79
2023/08/25 12:43:27;;;;;;;;;;;;;;;38.24;24.90;98536.06;4992550;28;19914;-80